EPWR

Copernicus Wrocław Airport

Wrocław, Poland
TAF EPWR 190830Z 1909/2009 29015KT 9999 BKN026 PROB40 1909/1913 BKN007 TEMPO 1910/1921 30015G25KT SHRA BKN020CB
Issued Valid From Valid To
Jul-19 @ 08:30 UTC
(an hour ago)
Jul-19 @ 09:00 UTC
(37 minutes ago)
Jul-20 @ 09:00 UTC
(in 23 hours)
Jul-19 @ 09:00 to Jul-20 @ 09:00
TAF EPWR 190830Z 1909/2009 29015KT 9999 BKN026
Wind Visibility Clouds
290° at 15 knots 10,000+ meters
  • Broken at 2,600' AGL
Probable  (Probability 40%) Jul-19 @ 09:00 to Jul-19 @ 13:00
PROB40 1909/1913 BKN007
Clouds
  • Broken at 700' AGL
Temporary Jul-19 @ 10:00 to Jul-19 @ 21:00
TEMPO 1910/1921 30015G25KT SHRA BKN020CB
Wind Clouds Conditions
300° at 15 knots
 Gusting to 25 knots
  • Broken at 2,000' AGL
  • Rain
TAF EPWR 190830Z 1909/2009 29015KT 9999 BKN026 PROB40 1909/1913 BKN007 TEMPO 1910/1921 30015G25KT SHRA BKN020CB
Issued Jul-19 @ 08:30 UTC
(an hour ago)
Valid From Jul-19 @ 09:00 UTC
(37 minutes ago)
Valid To Jul-20 @ 09:00 UTC
(in 23 hours)
Jul-19 @ 09:00 - Jul-20 @ 09:00
Wind Visibility
290° at 15 knots 10,000+ meters
Clouds
  • Broken at 2,600' AGL
Probability 40% Probable Jul-19 @ 09:00 - Jul-19 @ 13:00
Clouds
  • Broken at 700' AGL
Temporary Jul-19 @ 10:00 - Jul-19 @ 21:00
Wind
300° at 15 knots
 Gusting to 25 knots
Clouds
  • Broken at 2,000' AGL
Conditions
  • Rain